createdAt,value
2023-06-06T00:00:41.615Z,12.07
2023-06-06T00:05:43.003Z,11.95
2023-06-06T00:10:44.498Z,11.89
2023-06-06T00:15:45.896Z,11.73
2023-06-06T00:20:47.393Z,11.61
2023-06-06T00:25:50.684Z,11.52
2023-06-06T00:30:52.022Z,11.49
2023-06-06T00:35:53.378Z,11.39
2023-06-06T00:40:56.545Z,11.37
2023-06-06T00:45:58.009Z,11.42
2023-06-06T00:51:00.325Z,11.34
2023-06-06T00:56:02.354Z,11.35
2023-06-06T01:01:03.813Z,11.30
2023-06-06T01:06:06.745Z,11.31
2023-06-06T01:11:14.137Z,11.24
2023-06-06T01:16:18.486Z,11.16
2023-06-06T01:21:21.080Z,11.06
2023-06-06T01:26:23.804Z,10.97
2023-06-06T01:31:27.885Z,10.91
2023-06-06T01:36:42.480Z,10.83
2023-06-06T01:41:46.451Z,10.74
2023-06-06T01:46:47.851Z,10.68
2023-06-06T01:51:49.260Z,10.66
2023-06-06T01:56:51.401Z,10.50
2023-06-06T02:01:52.734Z,10.40
2023-06-06T02:06:54.096Z,10.35
2023-06-06T02:11:55.449Z,10.26
2023-06-06T02:16:56.819Z,10.17
2023-06-06T02:21:58.373Z,10.11
2023-06-06T02:26:59.755Z,10.01
2023-06-06T02:32:01.125Z,9.90
2023-06-06T02:37:07.774Z,9.90
2023-06-06T02:42:09.147Z,9.87
2023-06-06T02:47:10.584Z,9.80
2023-06-06T02:52:11.932Z,9.74
2023-06-06T02:57:13.285Z,9.72
2023-06-06T03:02:16.863Z,9.68
2023-06-06T03:07:18.198Z,9.60
2023-06-06T03:12:19.555Z,9.53
2023-06-06T03:17:20.931Z,9.51
2023-06-06T03:22:22.321Z,9.49
2023-06-06T03:27:23.696Z,9.42
2023-06-06T03:32:25.149Z,9.38
2023-06-06T03:37:26.626Z,9.39
2023-06-06T03:42:27.988Z,9.42
2023-06-06T03:47:29.384Z,9.41
2023-06-06T03:52:30.826Z,9.44
2023-06-06T03:57:32.167Z,9.55
2023-06-06T04:02:34.241Z,9.61
2023-06-06T04:07:36.976Z,9.64
2023-06-06T04:12:40.734Z,9.82
2023-06-06T04:17:42.156Z,9.91
2023-06-06T04:22:44.368Z,11.00
2023-06-06T04:27:46.343Z,11.87
2023-06-06T04:32:49.284Z,11.43
2023-06-06T04:37:55.187Z,11.55
2023-06-06T04:42:59.512Z,11.37
2023-06-06T04:48:01.057Z,11.05
2023-06-06T04:53:02.462Z,11.14
2023-06-06T04:58:04.005Z,11.30
2023-06-06T05:03:05.459Z,11.50
2023-06-06T05:08:06.845Z,11.77
2023-06-06T05:13:08.208Z,12.08
2023-06-06T05:18:09.594Z,12.36
2023-06-06T05:23:11.003Z,12.49
2023-06-06T05:28:12.544Z,12.84
2023-06-06T05:33:14.188Z,15.26
2023-06-06T05:38:16.371Z,16.47
2023-06-06T05:43:17.819Z,17.28
2023-06-06T05:48:19.163Z,18.21
2023-06-06T05:53:22.486Z,19.07
2023-06-06T05:58:24.149Z,20.14
2023-06-06T06:03:26.258Z,20.76
2023-06-06T06:08:27.623Z,20.84
2023-06-06T06:13:29.542Z,21.25
2023-06-06T06:18:30.946Z,21.71
2023-06-06T06:23:32.419Z,23.53
2023-06-06T06:28:33.787Z,24.80
2023-06-06T06:33:35.379Z,22.59
2023-06-06T06:38:37.608Z,22.80
2023-06-06T06:43:38.990Z,23.40
2023-06-06T06:48:40.554Z,22.98
2023-06-06T06:53:41.992Z,23.79
2023-06-06T06:58:43.344Z,23.41
2023-06-06T07:03:46.749Z,25.59
2023-06-06T07:08:48.105Z,25.20
2023-06-06T07:13:49.848Z,26.76
2023-06-06T07:18:52.575Z,25.88
2023-06-06T07:23:54.018Z,25.27
2023-06-06T07:28:55.435Z,27.38
2023-06-06T07:33:56.950Z,26.51
2023-06-06T07:38:58.481Z,25.50
2023-06-06T07:43:59.876Z,27.42
2023-06-06T07:49:01.273Z,27.07
2023-06-06T07:54:02.733Z,28.24
2023-06-06T07:59:04.401Z,28.91
2023-06-06T08:04:08.704Z,27.78
2023-06-06T08:09:10.132Z,28.98
2023-06-06T08:14:11.653Z,28.92
2023-06-06T08:19:13.052Z,25.67
2023-06-06T08:24:14.497Z,27.61
2023-06-06T08:29:16.009Z,28.38
2023-06-06T08:34:17.393Z,29.36
2023-06-06T08:39:19.766Z,28.39
2023-06-06T08:44:22.572Z,28.59
2023-06-06T08:49:25.976Z,29.35
2023-06-06T08:54:28.118Z,31.40
2023-06-06T08:59:29.572Z,31.31
2023-06-06T09:04:33.096Z,32.64
2023-06-06T09:09:34.838Z,34.04
2023-06-06T09:14:36.282Z,32.73
2023-06-06T09:19:37.603Z,32.79
2023-06-06T09:24:45.961Z,32.76
2023-06-06T09:29:47.501Z,32.74
2023-06-06T09:34:49.496Z,32.49
2023-06-06T09:40:09.847Z,33.59
2023-06-06T09:45:15.371Z,31.96
2023-06-06T09:50:18.299Z,33.54
2023-06-06T09:55:19.963Z,33.82
2023-06-06T10:00:22.559Z,33.45
2023-06-06T10:05:24.308Z,32.22
2023-06-06T10:10:26.315Z,29.94
2023-06-06T10:15:28.009Z,30.17
2023-06-06T10:20:29.444Z,29.02
2023-06-06T10:25:31.486Z,31.36
2023-06-06T10:30:32.804Z,31.91
2023-06-06T10:35:35.298Z,32.93
2023-06-06T10:40:53.646Z,32.19
2023-06-06T10:45:56.439Z,27.89
2023-06-06T10:50:57.799Z,28.78
2023-06-06T10:55:59.335Z,29.26
2023-06-06T11:01:02.148Z,30.98
2023-06-06T11:06:15.347Z,32.45
2023-06-06T11:11:18.283Z,31.06
2023-06-06T11:16:46.364Z,30.32
2023-06-06T11:21:49.088Z,30.55
2023-06-06T11:26:51.320Z,29.84
2023-06-06T11:31:52.921Z,30.41
2023-06-06T11:36:55.160Z,30.73
2023-06-06T11:41:57.804Z,31.02
2023-06-06T11:46:59.654Z,30.83
2023-06-06T11:52:04.925Z,30.36
2023-06-06T11:57:09.150Z,30.00
2023-06-06T12:02:13.859Z,30.39
2023-06-06T12:07:15.397Z,30.90
2023-06-06T12:12:16.736Z,31.17
2023-06-06T12:17:20.149Z,30.12
2023-06-06T12:22:32.435Z,30.23
2023-06-06T12:27:37.901Z,30.55
2023-06-06T12:32:39.886Z,30.53
2023-06-06T12:37:42.515Z,29.95
2023-06-06T12:42:50.832Z,30.66
2023-06-06T12:47:52.825Z,31.38
2023-06-06T12:52:54.288Z,31.13
2023-06-06T12:57:55.706Z,30.00
2023-06-06T13:02:57.214Z,28.71
2023-06-06T13:07:58.642Z,27.78
2023-06-06T13:13:00.028Z,27.89
2023-06-06T13:18:01.507Z,27.90
2023-06-06T13:23:05.600Z,27.88
2023-06-06T13:28:06.943Z,27.90
2023-06-06T13:33:08.455Z,27.89
2023-06-06T13:38:10.138Z,27.75
2023-06-06T13:43:13.076Z,27.65
2023-06-06T13:48:15.956Z,27.19
2023-06-06T13:53:17.459Z,27.21
2023-06-06T13:58:23.598Z,27.05
2023-06-06T14:03:25.088Z,27.23
2023-06-06T14:08:26.524Z,27.34
2023-06-06T14:13:28.482Z,27.22
2023-06-06T14:18:30.132Z,27.21
2023-06-06T14:23:31.643Z,26.80
2023-06-06T14:28:33.087Z,26.80
2023-06-06T14:33:34.529Z,27.48
2023-06-06T14:38:37.006Z,27.37
2023-06-06T14:43:38.423Z,27.43
2023-06-06T14:48:40.684Z,26.97
2023-06-06T14:53:42.459Z,27.23
2023-06-06T14:58:44.501Z,27.37
2023-06-06T15:03:46.229Z,27.35
2023-06-06T15:08:47.737Z,27.54
2023-06-06T15:13:49.208Z,27.55
2023-06-06T15:18:50.589Z,27.62
2023-06-06T15:23:55.264Z,27.26
2023-06-06T15:28:57.619Z,27.42
2023-06-06T15:33:59.107Z,27.47
2023-06-06T15:39:02.111Z,27.52
2023-06-06T15:44:03.518Z,27.42
2023-06-06T15:49:04.888Z,27.32
2023-06-06T15:54:06.758Z,27.55
2023-06-06T15:59:09.069Z,27.54
2023-06-06T16:04:10.679Z,27.44
2023-06-06T16:09:12.050Z,27.05
2023-06-06T16:14:13.408Z,27.18
2023-06-06T16:19:14.830Z,27.02
2023-06-06T16:24:17.038Z,26.75
2023-06-06T16:29:18.422Z,26.56
2023-06-06T16:34:19.857Z,26.48
2023-06-06T16:39:21.258Z,26.24
2023-06-06T16:44:23.128Z,26.16
2023-06-06T16:49:24.512Z,25.81
2023-06-06T16:54:26.483Z,25.76
2023-06-06T16:59:27.862Z,25.70
2023-06-06T17:04:29.240Z,25.55
2023-06-06T17:09:30.698Z,24.98
2023-06-06T17:14:32.203Z,24.71
2023-06-06T17:19:33.539Z,24.45
2023-06-06T17:24:36.394Z,23.93
2023-06-06T17:29:37.755Z,23.58
2023-06-06T17:34:39.137Z,23.36
2023-06-06T17:39:40.504Z,23.09
2023-06-06T17:44:42.162Z,22.94
2023-06-06T17:49:43.534Z,22.78
2023-06-06T17:54:44.923Z,22.87
2023-06-06T17:59:46.257Z,22.69
2023-06-06T18:04:48.148Z,22.63
2023-06-06T18:09:49.686Z,22.67
2023-06-06T18:14:53.201Z,22.58
2023-06-06T18:19:54.791Z,22.63
2023-06-06T18:24:56.145Z,22.60
2023-06-06T18:29:57.542Z,22.55
2023-06-06T18:34:59.218Z,22.51
2023-06-06T18:40:01.197Z,22.48
2023-06-06T18:45:03.152Z,22.41
2023-06-06T18:50:04.968Z,22.33
2023-06-06T18:55:06.894Z,22.12
2023-06-06T19:00:09.176Z,22.00
2023-06-06T19:05:11.480Z,21.89
2023-06-06T19:10:13.216Z,21.67
2023-06-06T19:15:15.075Z,21.60
2023-06-06T19:20:18.827Z,21.44
2023-06-06T19:25:20.465Z,21.37
2023-06-06T19:30:21.872Z,21.26
2023-06-06T19:35:23.364Z,21.13
2023-06-06T19:40:25.548Z,20.96
2023-06-06T19:45:27.168Z,20.72
2023-06-06T19:50:28.583Z,20.61
2023-06-06T19:55:30.496Z,20.36
2023-06-06T20:00:31.860Z,20.25
2023-06-06T20:05:33.250Z,20.04
2023-06-06T20:10:34.753Z,19.89
2023-06-06T20:15:36.348Z,19.51
2023-06-06T20:20:42.379Z,19.40
2023-06-06T20:26:00.819Z,19.24
2023-06-06T20:31:04.155Z,19.07
2023-06-06T20:36:06.286Z,18.97
2023-06-06T20:41:07.623Z,18.87
2023-06-06T20:46:08.975Z,18.76
2023-06-06T20:51:10.341Z,18.56
2023-06-06T20:56:11.687Z,18.42
2023-06-06T21:01:14.021Z,18.39
2023-06-06T21:06:15.551Z,18.32
2023-06-06T21:11:16.942Z,18.26
2023-06-06T21:16:18.448Z,18.21
2023-06-06T21:21:21.684Z,18.12
2023-06-06T21:26:23.136Z,18.04
2023-06-06T21:31:24.549Z,17.90
2023-06-06T21:36:26.031Z,17.82
2023-06-06T21:41:28.239Z,17.63
2023-06-06T21:46:29.850Z,17.54
2023-06-06T21:51:31.256Z,17.39
2023-06-06T21:56:32.659Z,17.26
2023-06-06T22:01:34.069Z,17.14
2023-06-06T22:06:36.383Z,17.00
2023-06-06T22:11:37.748Z,16.86
2023-06-06T22:16:39.132Z,16.77
2023-06-06T22:21:40.575Z,16.65
2023-06-06T22:26:41.975Z,16.67
2023-06-06T22:31:43.359Z,16.61
2023-06-06T22:36:45.198Z,16.64
2023-06-06T22:41:46.650Z,16.57
2023-06-06T22:46:48.110Z,16.36
2023-06-06T22:51:49.582Z,16.33
2023-06-06T22:56:51.168Z,16.28
2023-06-06T23:01:52.685Z,16.13
2023-06-06T23:06:54.104Z,16.03
2023-06-06T23:11:55.566Z,15.93
2023-06-06T23:16:56.904Z,15.78
2023-06-06T23:21:58.235Z,15.57
2023-06-06T23:26:59.610Z,15.33
2023-06-06T23:32:01.016Z,15.25
2023-06-06T23:37:02.382Z,15.10
2023-06-06T23:42:03.824Z,15.01
2023-06-06T23:47:05.430Z,14.84
2023-06-06T23:52:07.154Z,14.72
2023-06-06T23:57:08.536Z,14.59
